createdAt,value
2023-04-02T00:02:33.434Z,101797.56
2023-04-02T00:05:50.476Z,101797.84
2023-04-02T00:08:31.346Z,101799.06
2023-04-02T00:11:01.295Z,101795.63
2023-04-02T00:13:37.459Z,101794.75
2023-04-02T00:16:09.252Z,101812.06
2023-04-02T00:18:42.990Z,101813.91
2023-04-02T00:21:18.066Z,101810.97
2023-04-02T00:23:46.818Z,101806.66
2023-04-02T00:26:26.713Z,101817.97
2023-04-02T00:28:56.553Z,101824.38
2023-04-02T00:31:25.670Z,101833.44
2023-04-02T00:33:55.859Z,101833.56
2023-04-02T00:36:26.661Z,101832.84
2023-04-02T00:38:56.838Z,101843.50
2023-04-02T00:41:29.754Z,101842.78
2023-04-02T00:44:01.057Z,101846.22
2023-04-02T00:46:32.593Z,101853.34
2023-04-02T00:49:08.014Z,101854.44
2023-04-02T00:51:38.292Z,101835.63
2023-04-02T00:54:10.634Z,101866.09
2023-04-02T00:56:42.350Z,101869.53
2023-04-02T00:59:21.508Z,101872.34
2023-04-02T01:01:55.227Z,101881.31
2023-04-02T01:04:31.616Z,101870.13
2023-04-02T01:07:01.239Z,101886.84
2023-04-02T01:09:43.900Z,101885.84
2023-04-02T01:12:30.375Z,101897.53
2023-04-02T01:15:09.815Z,101900.34
2023-04-02T01:17:50.306Z,101900.34
2023-04-02T01:20:57.109Z,101902.19
2023-04-02T01:23:29.574Z,101907.69
2023-04-02T01:26:06.135Z,101917.53
2023-04-02T01:28:50.213Z,101920.38
2023-04-02T01:31:18.629Z,101919.59
2023-04-02T01:33:46.833Z,101922.28
2023-04-02T01:36:22.324Z,101924.91
2023-04-02T01:38:59.624Z,101927.59
2023-04-02T01:41:34.880Z,101932.13
2023-04-02T01:44:08.415Z,101932.22
2023-04-02T01:46:41.212Z,101936.81
2023-04-02T01:49:14.955Z,101939.50
2023-04-02T01:51:45.808Z,101933.09
2023-04-02T01:54:18.351Z,101933.69
2023-04-02T01:56:48.104Z,101949.31
2023-04-02T01:59:20.252Z,101947.38
2023-04-02T02:01:56.399Z,101944.78
2023-04-02T02:04:24.558Z,101953.38
2023-04-02T02:06:53.006Z,101957.56
2023-04-02T02:09:24.805Z,101940.22
2023-04-02T02:11:53.431Z,101967.16
2023-04-02T02:14:25.816Z,101973.41
2023-04-02T02:16:56.723Z,101958.53
2023-04-02T02:19:30.030Z,101977.81
2023-04-02T02:22:05.266Z,101959.63
2023-04-02T02:24:35.821Z,101990.25
2023-04-02T02:27:17.044Z,101988.28
2023-04-02T02:29:50.466Z,101992.81
2023-04-02T02:32:21.742Z,101989.16
2023-04-02T02:34:55.425Z,101993.56
2023-04-02T02:37:30.269Z,101981.63
2023-04-02T02:40:00.902Z,101998.22
2023-04-02T02:42:33.655Z,102003.25
2023-04-02T02:45:07.938Z,102006.69
2023-04-02T02:47:39.199Z,102009.31
2023-04-02T02:50:19.187Z,102015.56
2023-04-02T02:52:53.315Z,102021.81
2023-04-02T02:55:25.061Z,102025.38
2023-04-02T02:58:20.068Z,102023.69
2023-04-02T03:01:00.629Z,102024.66
2023-04-02T03:03:34.441Z,102033.63
2023-04-02T03:06:06.769Z,102033.84
2023-04-02T03:08:40.354Z,102045.16
2023-04-02T03:11:16.511Z,102040.72
2023-04-02T03:13:50.080Z,102041.22
2023-04-02T03:16:27.910Z,102052.41
2023-04-02T03:19:03.570Z,102055.00
2023-04-02T03:21:37.728Z,102060.63
2023-04-02T03:24:13.422Z,102055.00
2023-04-02T03:26:45.540Z,102067.75
2023-04-02T03:29:18.448Z,102078.31
2023-04-02T03:31:51.435Z,102082.75
2023-04-02T03:34:26.016Z,102080.06
2023-04-02T03:36:59.996Z,102087.28
2023-04-02T03:39:34.664Z,102083.72
2023-04-02T03:42:09.005Z,102096.25
2023-04-02T03:44:45.545Z,102100.81
2023-04-02T03:47:20.310Z,102107.94
2023-04-02T03:49:54.943Z,102111.53
2023-04-02T03:52:26.888Z,102114.44
2023-04-02T03:54:58.257Z,102115.06
2023-04-02T03:57:32.902Z,102121.44
2023-04-02T04:00:06.976Z,102116.38
2023-04-02T04:02:46.507Z,102125.06
2023-04-02T04:05:29.710Z,102134.97
2023-04-02T04:08:03.873Z,102127.81
2023-04-02T04:10:33.190Z,102129.56
2023-04-02T04:13:06.617Z,102135.84
2023-04-02T04:15:38.342Z,102145.78
2023-04-02T04:18:19.901Z,102149.38
2023-04-02T04:20:56.357Z,102150.31
2023-04-02T04:23:32.577Z,102155.72
2023-04-02T04:26:10.581Z,102158.41
2023-04-02T04:28:48.496Z,102151.50
2023-04-02T04:31:24.638Z,102163.06
2023-04-02T04:34:03.101Z,102152.34
2023-04-02T04:36:37.852Z,102172.16
2023-04-02T04:39:21.458Z,102179.50
2023-04-02T04:41:52.899Z,102181.34
2023-04-02T04:44:25.103Z,102173.47
2023-04-02T04:47:03.385Z,102186.75
2023-04-02T04:49:37.109Z,102187.63
2023-04-02T04:52:13.306Z,102192.88
2023-04-02T04:54:42.313Z,102193.88
2023-04-02T04:57:28.346Z,102200.47
2023-04-02T05:00:02.230Z,102211.81
2023-04-02T05:02:38.354Z,102209.09
2023-04-02T05:05:19.418Z,102210.84
2023-04-02T05:07:54.187Z,102220.66
2023-04-02T05:10:30.132Z,102217.00
2023-04-02T05:13:05.081Z,102218.81
2023-04-02T05:15:42.155Z,102227.72
2023-04-02T05:18:26.969Z,102226.72
2023-04-02T05:21:01.466Z,102234.84
2023-04-02T05:23:36.141Z,102231.38
2023-04-02T05:26:11.470Z,102234.16
2023-04-02T05:28:47.392Z,102234.84
2023-04-02T05:31:19.954Z,102228.16
2023-04-02T05:33:50.401Z,102239.38
2023-04-02T05:36:24.166Z,102245.66
2023-04-02T05:38:57.959Z,102245.75
2023-04-02T05:41:41.752Z,102225.78
2023-04-02T05:44:17.849Z,102252.78
2023-04-02T05:46:50.659Z,102255.59
2023-04-02T05:49:28.285Z,102265.44
2023-04-02T05:52:01.558Z,102260.91
2023-04-02T05:54:35.654Z,102261.66
2023-04-02T05:57:07.837Z,102265.31
2023-04-02T05:59:40.657Z,102264.56
2023-04-02T06:02:20.354Z,102277.63
2023-04-02T06:04:55.612Z,102269.00
2023-04-02T06:07:33.676Z,102266.31
2023-04-02T06:10:07.925Z,102280.22
2023-04-02T06:12:42.506Z,102288.22
2023-04-02T06:15:14.383Z,102291.75
2023-04-02T06:17:48.889Z,102293.38
2023-04-02T06:20:18.955Z,102303.13
2023-04-02T06:22:51.016Z,102273.19
2023-04-02T06:25:25.082Z,102302.66
2023-04-02T06:27:56.526Z,102308.06
2023-04-02T06:30:29.519Z,102311.41
2023-04-02T06:32:58.249Z,102310.41
2023-04-02T06:35:27.836Z,102315.59
2023-04-02T06:38:03.807Z,102318.06
2023-04-02T06:40:42.237Z,102314.28
2023-04-02T06:43:44.279Z,102322.50
2023-04-02T06:46:27.706Z,102329.41
2023-04-02T06:49:18.467Z,102337.28
2023-04-02T06:51:49.561Z,102337.16
2023-04-02T06:54:19.983Z,102348.63
2023-04-02T06:56:56.206Z,102340.50
2023-04-02T06:59:44.435Z,102312.28
2023-04-02T07:02:29.604Z,102341.16
2023-04-02T07:05:03.251Z,102335.84
2023-04-02T07:07:32.938Z,102342.03
2023-04-02T07:10:07.053Z,102351.84
2023-04-02T07:12:35.473Z,102354.56
2023-04-02T07:15:03.886Z,102355.28
2023-04-02T07:17:32.062Z,102352.59
2023-04-02T07:20:00.716Z,102359.72
2023-04-02T07:22:28.670Z,102333.63
2023-04-02T07:25:00.396Z,102362.00
2023-04-02T07:27:29.887Z,102367.16
2023-04-02T07:29:57.893Z,102375.94
2023-04-02T07:32:26.199Z,102372.13
2023-04-02T07:34:54.173Z,102348.47
2023-04-02T07:37:22.198Z,102377.09
2023-04-02T07:39:50.132Z,102373.16
2023-04-02T07:42:18.077Z,102379.34
2023-04-02T07:44:47.362Z,102380.94
2023-04-02T07:47:15.428Z,102386.25
2023-04-02T07:49:43.405Z,102393.13
2023-04-02T07:52:13.027Z,102388.47
2023-04-02T07:54:40.992Z,102382.31
2023-04-02T07:57:08.962Z,102402.53
2023-04-02T07:59:36.859Z,102405.00
2023-04-02T08:02:06.305Z,102415.56
2023-04-02T08:04:34.426Z,102415.34
2023-04-02T08:07:03.004Z,102415.13
2023-04-02T08:09:30.953Z,102415.84
2023-04-02T08:11:58.921Z,102422.03
2023-04-02T08:14:26.808Z,102423.75
2023-04-02T08:16:56.665Z,102426.22
2023-04-02T08:19:26.458Z,102423.38
2023-04-02T08:21:54.429Z,102436.81
2023-04-02T08:24:23.105Z,102408.97
2023-04-02T08:26:51.638Z,102431.19
2023-04-02T08:29:19.601Z,102445.44
2023-04-02T08:31:48.019Z,102433.13
2023-04-02T08:34:16.240Z,102447.97
2023-04-02T08:36:46.572Z,102456.81
2023-04-02T08:39:14.746Z,102453.25
2023-04-02T08:41:48.260Z,102462.00
2023-04-02T08:44:39.059Z,102463.72
2023-04-02T08:47:09.635Z,102462.88
2023-04-02T08:49:43.431Z,102466.44
2023-04-02T08:52:23.288Z,102463.63
2023-04-02T08:54:53.361Z,102467.28
2023-04-02T08:57:32.677Z,102451.59
2023-04-02T09:00:06.979Z,102469.25
2023-04-02T09:02:41.526Z,102481.84
2023-04-02T09:05:18.546Z,102487.25
2023-04-02T09:07:49.953Z,102489.19
2023-04-02T09:10:19.296Z,102500.16
2023-04-02T09:12:53.039Z,102506.31
2023-04-02T09:15:29.378Z,102510.97
2023-04-02T09:18:05.773Z,102511.94
2023-04-02T09:20:33.835Z,102512.94
2023-04-02T09:23:03.182Z,102519.22
2023-04-02T09:25:33.435Z,102499.31
2023-04-02T09:28:03.298Z,102523.00
2023-04-02T09:30:44.600Z,102524.72
2023-04-02T09:33:12.948Z,102521.41
2023-04-02T09:35:58.002Z,102526.69
2023-04-02T09:38:31.392Z,102526.69
2023-04-02T09:41:01.730Z,102538.38
2023-04-02T09:43:31.861Z,102513.81
2023-04-02T09:46:02.377Z,102512.72
2023-04-02T09:48:33.583Z,102469.16
2023-04-02T09:51:14.187Z,102535.53
2023-04-02T09:53:45.918Z,102546.38
2023-04-02T09:56:19.828Z,102522.13
2023-04-02T09:59:03.760Z,102538.81
2023-04-02T10:01:34.240Z,102546.69
2023-04-02T10:04:03.981Z,102534.03
2023-04-02T10:06:34.134Z,102545.72
2023-04-02T10:09:21.306Z,102549.19
2023-04-02T10:11:51.732Z,102546.56
2023-04-02T10:14:21.851Z,102555.56
2023-04-02T10:16:53.336Z,102572.22
2023-04-02T10:19:29.936Z,102572.22
2023-04-02T10:21:59.912Z,102558.41
2023-04-02T10:24:29.761Z,102584.03
2023-04-02T10:27:06.693Z,102589.34
2023-04-02T10:29:47.435Z,102581.22
2023-04-02T10:32:19.915Z,102587.47
2023-04-02T10:34:57.407Z,102592.06
2023-04-02T10:37:53.310Z,102594.78
2023-04-02T10:40:28.187Z,102593.16
2023-04-02T10:43:08.454Z,102605.69
2023-04-02T10:45:43.695Z,102604.84
2023-04-02T10:48:18.925Z,102624.78
2023-04-02T10:50:56.133Z,102618.38
2023-04-02T10:53:34.506Z,102623.69
2023-04-02T10:56:08.844Z,102621.00
2023-04-02T10:58:41.204Z,102625.53
2023-04-02T11:01:16.966Z,102556.66
2023-04-02T11:03:53.092Z,102605.88
2023-04-02T11:06:25.839Z,102633.66
2023-04-02T11:08:58.321Z,102638.31
2023-04-02T11:11:32.671Z,102644.84
2023-04-02T11:14:02.988Z,102642.22
2023-04-02T11:16:31.209Z,102656.78
2023-04-02T11:19:25.218Z,102669.22
2023-04-02T11:22:00.296Z,102659.91
2023-04-02T11:24:38.469Z,102674.72
2023-04-02T11:27:16.416Z,102669.53
2023-04-02T11:29:47.841Z,102683.06
2023-04-02T11:32:35.940Z,102690.44
2023-04-02T11:35:27.170Z,102678.00
2023-04-02T11:37:56.736Z,102691.09
2023-04-02T11:40:51.348Z,102702.81
2023-04-02T11:43:51.074Z,102705.59
2023-04-02T11:46:46.888Z,102714.06
2023-04-02T11:49:58.690Z,102722.28
2023-04-02T11:52:30.660Z,102712.66
2023-04-02T11:55:22.328Z,102652.53
2023-04-02T11:58:16.460Z,102736.50
2023-04-02T12:01:23.300Z,102741.78
2023-04-02T12:04:37.884Z,102732.38
2023-04-02T12:07:27.958Z,102734.97
2023-04-02T12:09:59.828Z,102731.84
2023-04-02T12:12:30.323Z,102739.41
2023-04-02T12:14:59.874Z,102744.81
2023-04-02T12:17:33.548Z,102749.28
2023-04-02T12:20:09.301Z,102748.41
2023-04-02T12:22:40.066Z,102751.22
2023-04-02T12:25:24.534Z,102752.19
2023-04-02T12:28:05.766Z,102743.75
2023-04-02T12:30:34.509Z,102749.38
2023-04-02T12:33:18.803Z,102749.38
2023-04-02T12:35:48.893Z,102761.28
2023-04-02T12:38:22.574Z,102748.75
2023-04-02T12:40:54.747Z,102757.81
2023-04-02T12:43:30.305Z,102764.19
2023-04-02T12:46:01.172Z,102763.38
2023-04-02T12:48:32.399Z,102767.78
2023-04-02T12:51:01.268Z,102756.19
2023-04-02T12:53:35.086Z,102770.50
2023-04-02T12:56:03.634Z,102776.78
2023-04-02T12:58:34.415Z,102774.94
2023-04-02T13:01:18.543Z,102775.69
2023-04-02T13:04:06.023Z,102781.09
2023-04-02T13:06:35.557Z,102788.25
2023-04-02T13:09:06.589Z,102796.25
2023-04-02T13:11:36.806Z,102780.56
2023-04-02T13:14:06.930Z,102789.22
2023-04-02T13:16:36.754Z,102811.63
2023-04-02T13:19:27.393Z,102798.22
2023-04-02T13:21:56.822Z,102803.72
2023-04-02T13:24:26.618Z,102776.84
2023-04-02T13:26:57.604Z,102811.09
2023-04-02T13:29:28.348Z,102811.97
2023-04-02T13:31:59.293Z,102804.59
2023-04-02T13:34:29.550Z,102807.31
2023-04-02T13:36:58.339Z,102802.97
2023-04-02T13:39:27.211Z,102786.72
2023-04-02T13:41:58.649Z,102814.53
2023-04-02T13:44:29.610Z,102819.97
2023-04-02T13:46:58.299Z,102814.66
2023-04-02T13:49:28.600Z,102814.53
2023-04-02T13:51:59.019Z,102817.25
2023-04-02T13:54:31.236Z,102828.09
2023-04-02T13:56:59.358Z,102824.53
2023-04-02T13:59:27.789Z,102843.47
2023-04-02T14:01:58.955Z,102837.19
2023-04-02T14:04:30.955Z,102837.28
2023-04-02T14:07:25.924Z,102840.09
2023-04-02T14:10:06.306Z,102833.81
2023-04-02T14:12:45.407Z,102837.53
2023-04-02T14:15:31.727Z,102847.47
2023-04-02T14:18:18.536Z,102851.06
2023-04-02T14:20:57.831Z,102852.00
2023-04-02T14:23:49.724Z,102848.44
2023-04-02T14:26:26.324Z,102856.56
2023-04-02T14:29:01.589Z,102852.00
2023-04-02T14:31:36.188Z,102858.38
2023-04-02T14:34:11.616Z,102859.38
2023-04-02T14:36:56.423Z,102853.31
2023-04-02T14:39:37.149Z,102864.88
2023-04-02T14:42:13.830Z,102872.13
2023-04-02T14:44:50.196Z,102867.72
2023-04-02T14:47:23.246Z,102861.94
2023-04-02T14:49:55.716Z,102875.91
2023-04-02T14:52:28.031Z,102884.03
2023-04-02T14:55:00.478Z,102892.28
2023-04-02T14:57:31.502Z,102894.97
2023-04-02T15:00:03.948Z,102886.84
2023-04-02T15:02:41.286Z,102893.22
2023-04-02T15:05:17.684Z,102906.00
2023-04-02T15:07:53.143Z,102900.59
2023-04-02T15:10:27.418Z,102887.25
2023-04-02T15:12:57.031Z,102905.25
2023-04-02T15:15:42.425Z,102902.66
2023-04-02T15:18:12.620Z,102911.06
2023-04-02T15:20:51.382Z,102909.34
2023-04-02T15:23:30.395Z,102915.41
2023-04-02T15:26:07.630Z,102896.00
2023-04-02T15:28:40.874Z,102927.09
2023-04-02T15:31:14.259Z,102910.41
2023-04-02T15:33:45.084Z,102921.69
2023-04-02T15:36:31.480Z,102927.28
2023-04-02T15:39:12.858Z,102923.94
2023-04-02T15:41:43.608Z,102931.06
2023-04-02T15:44:15.820Z,102921.00
2023-04-02T15:46:53.462Z,102898.19
2023-04-02T15:49:42.599Z,102937.03
2023-04-02T15:52:17.161Z,102947.88
2023-04-02T15:55:01.218Z,102955.91
2023-04-02T15:57:43.558Z,102944.31
2023-04-02T16:00:22.308Z,102937.25
2023-04-02T16:03:23.014Z,102949.06
2023-04-02T16:06:10.686Z,102948.31
2023-04-02T16:08:57.205Z,102955.63
2023-04-02T16:11:27.913Z,102932.81
2023-04-02T16:14:05.532Z,102949.38
2023-04-02T16:16:36.155Z,102966.56
2023-04-02T16:19:16.104Z,102947.34
2023-04-02T16:21:50.192Z,102968.66
2023-04-02T16:24:18.528Z,102965.22
2023-04-02T16:26:58.736Z,102980.66
2023-04-02T16:29:59.086Z,102979.88
2023-04-02T16:32:50.069Z,102989.94
2023-04-02T16:38:09.229Z,102996.31
2023-04-02T16:40:45.157Z,102960.44
2023-04-02T16:43:27.973Z,102990.91
2023-04-02T16:46:02.952Z,102997.28
2023-04-02T16:48:39.987Z,102996.53
2023-04-02T16:51:18.625Z,103002.91
2023-04-02T16:54:02.143Z,103007.53
2023-04-02T16:56:50.690Z,103006.66
2023-04-02T16:59:28.595Z,102993.22
2023-04-02T17:02:03.358Z,103012.16
2023-04-02T17:04:59.721Z,103019.31
2023-04-02T17:07:35.661Z,103019.63
2023-04-02T17:10:24.197Z,103024.34
2023-04-02T17:13:03.250Z,103028.03
2023-04-02T17:15:39.295Z,103037.09
2023-04-02T17:18:15.984Z,103030.94
2023-04-02T17:20:44.789Z,103041.75
2023-04-02T17:23:15.370Z,103042.63
2023-04-02T17:25:51.450Z,103035.56
2023-04-02T17:28:25.609Z,103040.19
2023-04-02T17:30:57.626Z,103043.88
2023-04-02T17:33:27.433Z,103057.47
2023-04-02T17:36:22.249Z,103052.19
2023-04-02T17:39:00.968Z,103057.66
2023-04-02T17:41:35.091Z,103050.72
2023-04-02T17:44:15.893Z,103060.47
2023-04-02T17:46:53.006Z,103056.03
2023-04-02T17:49:31.468Z,103057.78
2023-04-02T17:52:08.107Z,103049.66
2023-04-02T17:54:44.164Z,103065.78
2023-04-02T17:57:26.056Z,103070.13
2023-04-02T18:00:11.433Z,103076.50
2023-04-02T18:03:00.771Z,103079.09
2023-04-02T18:05:34.439Z,103080.94
2023-04-02T18:08:14.598Z,103084.44
2023-04-02T18:10:54.346Z,103082.56
2023-04-02T18:13:33.945Z,103081.63
2023-04-02T18:16:18.121Z,103090.63
2023-04-02T18:18:56.406Z,103085.41
2023-04-02T18:21:31.840Z,103085.41
2023-04-02T18:24:17.304Z,103088.22
2023-04-02T18:26:53.758Z,103087.41
2023-04-02T18:29:31.894Z,103082.28
2023-04-02T18:32:22.330Z,103096.59
2023-04-02T18:35:09.569Z,103090.31
2023-04-02T18:37:44.375Z,103102.88
2023-04-02T18:40:28.127Z,103101.16
2023-04-02T18:43:03.280Z,103103.84
2023-04-02T18:45:43.377Z,103100.28
2023-04-02T18:48:23.346Z,103103.84
2023-04-02T18:50:55.160Z,103111.97
2023-04-02T18:53:25.866Z,103117.38
2023-04-02T18:55:57.696Z,103114.75
2023-04-02T18:58:31.108Z,103116.84
2023-04-02T19:00:59.835Z,103128.38
2023-04-02T19:03:32.522Z,103127.50
2023-04-02T19:06:04.166Z,103124.03
2023-04-02T19:08:38.091Z,103126.53
2023-04-02T19:11:11.949Z,103135.59
2023-04-02T19:13:40.107Z,103125.06
2023-04-02T19:16:34.591Z,103135.50
2023-04-02T19:19:09.633Z,103147.19
2023-04-02T19:21:53.064Z,103145.34
2023-04-02T19:24:37.763Z,103145.25
2023-04-02T19:27:13.653Z,103146.13
2023-04-02T19:29:58.157Z,103133.59
2023-04-02T19:32:34.575Z,103146.88
2023-04-02T19:35:15.549Z,103141.47
2023-04-02T19:37:53.031Z,103130.38
2023-04-02T19:40:30.194Z,103141.78
2023-04-02T19:42:58.340Z,103149.69
2023-04-02T19:45:32.482Z,103155.59
2023-04-02T19:48:04.486Z,103163.63
2023-04-02T19:50:32.495Z,103158.97
2023-04-02T19:53:01.978Z,103168.75
2023-04-02T19:55:30.096Z,103170.56
2023-04-02T19:58:12.602Z,103173.09
2023-04-02T20:00:45.573Z,103132.91
2023-04-02T20:03:13.564Z,103170.19
2023-04-02T20:05:41.467Z,103165.56
2023-04-02T20:08:10.940Z,103163.63
2023-04-02T20:10:39.142Z,103167.22
2023-04-02T20:13:07.377Z,103136.00
2023-04-02T20:15:36.136Z,103156.88
2023-04-02T20:18:05.807Z,103172.53
2023-04-02T20:20:34.335Z,103177.06
2023-04-02T20:23:02.688Z,103177.94
2023-04-02T20:25:32.155Z,103181.41
2023-04-02T20:28:00.958Z,103183.16
2023-04-02T20:30:29.039Z,103180.34
2023-04-02T20:32:59.941Z,103155.31
2023-04-02T20:35:29.344Z,103147.22
2023-04-02T20:37:57.511Z,103176.78
2023-04-02T20:40:25.508Z,103176.69
2023-04-02T20:42:54.782Z,103172.13
2023-04-02T20:45:22.840Z,103175.72
2023-04-02T20:47:50.910Z,103176.69
2023-04-02T20:50:19.013Z,103160.25
2023-04-02T20:52:46.967Z,103181.22
2023-04-02T20:55:15.128Z,103177.75
2023-04-02T20:57:43.109Z,103178.81
2023-04-02T21:00:13.636Z,103181.72
2023-04-02T21:02:41.716Z,103172.78
2023-04-02T21:05:10.050Z,103165.97
2023-04-02T21:07:38.069Z,103176.66
2023-04-02T21:10:06.762Z,103183.03
2023-04-02T21:12:34.950Z,103179.56
2023-04-02T21:15:03.145Z,103177.84
2023-04-02T21:17:32.702Z,103176.97
2023-04-02T21:20:00.780Z,103176.09
2023-04-02T21:22:28.844Z,103170.69
2023-04-02T21:24:56.748Z,103176.97
2023-04-02T21:27:25.986Z,103167.09
2023-04-02T21:29:54.068Z,103140.31
2023-04-02T21:32:22.420Z,103179.75
2023-04-02T21:34:51.912Z,103154.69
2023-04-02T21:37:19.939Z,103180.72
2023-04-02T21:39:47.915Z,103179.09
2023-04-02T21:42:16.857Z,103184.38
2023-04-02T21:44:45.112Z,103192.50
2023-04-02T21:47:13.129Z,103191.63
2023-04-02T21:49:41.175Z,103187.19
2023-04-02T21:52:10.418Z,103188.16
2023-04-02T21:54:38.437Z,103189.97
2023-04-02T21:57:06.465Z,103191.91
2023-04-02T21:59:34.625Z,103190.16
2023-04-02T22:02:02.639Z,103189.38
2023-04-02T22:04:30.961Z,103166.69
2023-04-02T22:06:58.964Z,103193.91
2023-04-02T22:09:29.584Z,103138.69
2023-04-02T22:11:59.894Z,103186.78
2023-04-02T22:14:28.449Z,103192.19
2023-04-02T22:16:58.793Z,103190.38
2023-04-02T22:19:28.016Z,103205.59
2023-04-02T22:21:56.740Z,103196.44
2023-04-02T22:24:25.177Z,103186.78
2023-04-02T22:26:54.858Z,103190.06
2023-04-02T22:29:23.084Z,103198.19
2023-04-02T22:31:51.021Z,103200.97
2023-04-02T22:34:18.956Z,103200.97
2023-04-02T22:36:46.891Z,103200.91
2023-04-02T22:39:15.115Z,103204.47
2023-04-02T22:41:43.331Z,103204.38
2023-04-02T22:44:16.479Z,103202.44
2023-04-02T22:46:44.727Z,103205.25
2023-04-02T22:49:15.858Z,103200.72
2023-04-02T22:51:44.604Z,103204.38
2023-04-02T22:54:12.618Z,103199.91
2023-04-02T22:56:41.142Z,103206.13
2023-04-02T22:59:09.112Z,103202.53
2023-04-02T23:01:38.667Z,103205.25
2023-04-02T23:04:06.855Z,103207.94
2023-04-02T23:06:34.944Z,103208.03
2023-04-02T23:09:03.037Z,103208.03
2023-04-02T23:11:31.121Z,103200.91
2023-04-02T23:13:59.944Z,103203.50
2023-04-02T23:16:29.909Z,103176.50
2023-04-02T23:18:59.764Z,103212.38
2023-04-02T23:21:28.126Z,103170.22
2023-04-02T23:23:56.310Z,103212.59
2023-04-02T23:26:26.073Z,103197.69
2023-04-02T23:28:54.091Z,103212.59
2023-04-02T23:31:24.064Z,103216.06
2023-04-02T23:33:52.875Z,103219.72
2023-04-02T23:36:25.183Z,103218.75
2023-04-02T23:38:55.285Z,103216.94
2023-04-02T23:41:25.091Z,103222.34
2023-04-02T23:43:53.084Z,103218.84
2023-04-02T23:46:22.234Z,103212.47
2023-04-02T23:48:50.876Z,103216.06
2023-04-02T23:51:19.543Z,103214.31
2023-04-02T23:53:48.930Z,103218.84
2023-04-02T23:56:17.605Z,103209.19
2023-04-02T23:58:45.938Z,103219.66
